sensor_id;sensor_type;location;lat;lon;timestamp;P1;durP1;ratioP1;P2;durP2;ratioP2
305;SDS011;137;48.578;9.180;2022-12-29T00:00:11;4.40;;;1.77;;
305;SDS011;137;48.578;9.180;2022-12-29T00:02:40;2.90;;;1.97;;
305;SDS011;137;48.578;9.180;2022-12-29T00:05:07;2.03;;;1.40;;
305;SDS011;137;48.578;9.180;2022-12-29T00:07:34;5.60;;;1.63;;
305;SDS011;137;48.578;9.180;2022-12-29T00:10:01;2.80;;;1.60;;
305;SDS011;137;48.578;9.180;2022-12-29T00:12:28;1.87;;;1.57;;
305;SDS011;137;48.578;9.180;2022-12-29T00:15:15;1.70;;;1.57;;
305;SDS011;137;48.578;9.180;2022-12-29T00:18:04;2.73;;;1.97;;
305;SDS011;137;48.578;9.180;2022-12-29T00:20:32;3.73;;;1.73;;
305;SDS011;137;48.578;9.180;2022-12-29T00:23:17;2.00;;;1.80;;
305;SDS011;137;48.578;9.180;2022-12-29T00:26:02;2.20;;;1.80;;
305;SDS011;137;48.578;9.180;2022-12-29T00:28:47;3.07;;;1.87;;
305;SDS011;137;48.578;9.180;2022-12-29T00:31:31;3.70;;;1.60;;
305;SDS011;137;48.578;9.180;2022-12-29T00:34:16;2.20;;;2.00;;
305;SDS011;137;48.578;9.180;2022-12-29T00:37:00;3.00;;;2.17;;
305;SDS011;137;48.578;9.180;2022-12-29T00:39:27;2.97;;;2.10;;
305;SDS011;137;48.578;9.180;2022-12-29T00:42:12;3.53;;;2.57;;
305;SDS011;137;48.578;9.180;2022-12-29T00:44:58;5.87;;;3.13;;
305;SDS011;137;48.578;9.180;2022-12-29T00:47:25;4.37;;;3.13;;
305;SDS011;137;48.578;9.180;2022-12-29T00:49:53;3.07;;;2.63;;
305;SDS011;137;48.578;9.180;2022-12-29T00:52:19;3.83;;;2.90;;
305;SDS011;137;48.578;9.180;2022-12-29T00:54:45;3.60;;;2.60;;
305;SDS011;137;48.578;9.180;2022-12-29T00:57:12;3.07;;;2.70;;
305;SDS011;137;48.578;9.180;2022-12-29T00:59:39;2.97;;;2.43;;
305;SDS011;137;48.578;9.180;2022-12-29T01:02:08;2.70;;;2.50;;
305;SDS011;137;48.578;9.180;2022-12-29T01:04:35;2.43;;;2.20;;
305;SDS011;137;48.578;9.180;2022-12-29T01:07:03;2.80;;;1.83;;
305;SDS011;137;48.578;9.180;2022-12-29T01:09:31;2.97;;;1.80;;
305;SDS011;137;48.578;9.180;2022-12-29T01:12:15;2.90;;;2.43;;
305;SDS011;137;48.578;9.180;2022-12-29T01:15:03;3.50;;;1.40;;
305;SDS011;137;48.578;9.180;2022-12-29T01:17:30;2.00;;;1.60;;
305;SDS011;137;48.578;9.180;2022-12-29T01:19:57;3.00;;;2.13;;
305;SDS011;137;48.578;9.180;2022-12-29T01:22:25;3.10;;;2.10;;
305;SDS011;137;48.578;9.180;2022-12-29T01:24:52;3.33;;;2.07;;
305;SDS011;137;48.578;9.180;2022-12-29T01:27:19;2.80;;;1.77;;
305;SDS011;137;48.578;9.180;2022-12-29T01:29:45;2.73;;;2.00;;
305;SDS011;137;48.578;9.180;2022-12-29T01:32:12;3.70;;;2.17;;
305;SDS011;137;48.578;9.180;2022-12-29T01:34:39;2.20;;;1.90;;
305;SDS011;137;48.578;9.180;2022-12-29T01:37:06;2.00;;;1.70;;
305;SDS011;137;48.578;9.180;2022-12-29T01:39:34;3.80;;;1.80;;
305;SDS011;137;48.578;9.180;2022-12-29T01:42:01;1.77;;;1.67;;
305;SDS011;137;48.578;9.180;2022-12-29T01:47:15;1.80;;;1.60;;
305;SDS011;137;48.578;9.180;2022-12-29T01:49:57;2.17;;;1.40;;
305;SDS011;137;48.578;9.180;2022-12-29T01:52:27;4.13;;;1.47;;
305;SDS011;137;48.578;9.180;2022-12-29T01:54:59;2.53;;;1.40;;
305;SDS011;137;48.578;9.180;2022-12-29T01:57:27;2.00;;;0.90;;
305;SDS011;137;48.578;9.180;2022-12-29T01:59:58;1.47;;;1.10;;
305;SDS011;137;48.578;9.180;2022-12-29T02:02:33;3.73;;;1.30;;
305;SDS011;137;48.578;9.180;2022-12-29T02:05:01;1.83;;;1.10;;
305;SDS011;137;48.578;9.180;2022-12-29T02:07:33;2.50;;;2.30;;
305;SDS011;137;48.578;9.180;2022-12-29T02:10:01;3.20;;;1.20;;
305;SDS011;137;48.578;9.180;2022-12-29T02:12:29;1.50;;;1.20;;
305;SDS011;137;48.578;9.180;2022-12-29T02:14:57;2.00;;;1.03;;
305;SDS011;137;48.578;9.180;2022-12-29T02:17:31;1.60;;;1.00;;
305;SDS011;137;48.578;9.180;2022-12-29T02:20:18;1.80;;;1.13;;
305;SDS011;137;48.578;9.180;2022-12-29T02:23:16;1.93;;;1.00;;
305;SDS011;137;48.578;9.180;2022-12-29T02:26:12;2.13;;;1.20;;
305;SDS011;137;48.578;9.180;2022-12-29T02:29:05;1.83;;;1.10;;
305;SDS011;137;48.578;9.180;2022-12-29T02:32:02;1.33;;;0.90;;
305;SDS011;137;48.578;9.180;2022-12-29T02:34:36;1.30;;;0.83;;
305;SDS011;137;48.578;9.180;2022-12-29T02:37:12;4.50;;;1.20;;
305;SDS011;137;48.578;9.180;2022-12-29T02:39:47;1.60;;;1.33;;
305;SDS011;137;48.578;9.180;2022-12-29T02:42:20;1.90;;;1.00;;
305;SDS011;137;48.578;9.180;2022-12-29T02:44:52;1.20;;;0.80;;
305;SDS011;137;48.578;9.180;2022-12-29T02:47:27;1.30;;;0.87;;
305;SDS011;137;48.578;9.180;2022-12-29T02:50:01;1.30;;;1.00;;
305;SDS011;137;48.578;9.180;2022-12-29T02:52:33;1.50;;;0.90;;
305;SDS011;137;48.578;9.180;2022-12-29T02:55:03;1.30;;;0.90;;
305;SDS011;137;48.578;9.180;2022-12-29T02:57:30;2.50;;;1.17;;
305;SDS011;137;48.578;9.180;2022-12-29T03:00:00;2.20;;;1.20;;
305;SDS011;137;48.578;9.180;2022-12-29T03:02:35;1.57;;;0.97;;
305;SDS011;137;48.578;9.180;2022-12-29T03:08:19;4.13;;;0.80;;
305;SDS011;137;48.578;9.180;2022-12-29T03:10:55;1.33;;;0.90;;
305;SDS011;137;48.578;9.180;2022-12-29T03:13:28;2.67;;;1.10;;
305;SDS011;137;48.578;9.180;2022-12-29T03:16:19;2.90;;;1.27;;
305;SDS011;137;48.578;9.180;2022-12-29T03:18:55;1.77;;;1.17;;
305;SDS011;137;48.578;9.180;2022-12-29T03:21:30;1.37;;;1.10;;
305;SDS011;137;48.578;9.180;2022-12-29T03:24:17;1.80;;;1.20;;
305;SDS011;137;48.578;9.180;2022-12-29T03:26:46;1.80;;;1.20;;
305;SDS011;137;48.578;9.180;2022-12-29T03:29:15;1.87;;;1.07;;
305;SDS011;137;48.578;9.180;2022-12-29T03:31:44;1.50;;;0.77;;
305;SDS011;137;48.578;9.180;2022-12-29T03:34:15;2.33;;;1.10;;
305;SDS011;137;48.578;9.180;2022-12-29T03:36:47;1.97;;;0.93;;
305;SDS011;137;48.578;9.180;2022-12-29T03:39:17;1.57;;;1.00;;
305;SDS011;137;48.578;9.180;2022-12-29T03:41:46;3.13;;;1.33;;
305;SDS011;137;48.578;9.180;2022-12-29T03:44:16;3.73;;;1.03;;
305;SDS011;137;48.578;9.180;2022-12-29T03:46:43;5.73;;;2.23;;
305;SDS011;137;48.578;9.180;2022-12-29T03:49:10;1.40;;;1.13;;
305;SDS011;137;48.578;9.180;2022-12-29T03:51:38;2.57;;;1.10;;
305;SDS011;137;48.578;9.180;2022-12-29T03:54:05;1.93;;;1.20;;
305;SDS011;137;48.578;9.180;2022-12-29T03:56:32;1.87;;;0.80;;
305;SDS011;137;48.578;9.180;2022-12-29T03:58:59;5.50;;;1.30;;
305;SDS011;137;48.578;9.180;2022-12-29T04:01:26;1.53;;;1.00;;
305;SDS011;137;48.578;9.180;2022-12-29T04:03:52;2.13;;;1.13;;
305;SDS011;137;48.578;9.180;2022-12-29T04:06:19;2.20;;;1.23;;
305;SDS011;137;48.578;9.180;2022-12-29T04:08:48;2.33;;;1.40;;
305;SDS011;137;48.578;9.180;2022-12-29T04:11:15;1.50;;;1.00;;
305;SDS011;137;48.578;9.180;2022-12-29T04:13:42;1.90;;;1.20;;
305;SDS011;137;48.578;9.180;2022-12-29T04:16:08;3.37;;;1.13;;
305;SDS011;137;48.578;9.180;2022-12-29T04:18:35;1.60;;;1.07;;
305;SDS011;137;48.578;9.180;2022-12-29T04:21:02;2.00;;;1.00;;
305;SDS011;137;48.578;9.180;2022-12-29T04:23:29;1.60;;;0.90;;
305;SDS011;137;48.578;9.180;2022-12-29T04:25:58;2.37;;;1.43;;
305;SDS011;137;48.578;9.180;2022-12-29T04:28:25;4.60;;;1.20;;
305;SDS011;137;48.578;9.180;2022-12-29T04:30:52;2.00;;;1.30;;
305;SDS011;137;48.578;9.180;2022-12-29T04:33:20;2.17;;;1.67;;
305;SDS011;137;48.578;9.180;2022-12-29T04:35:47;4.60;;;1.07;;
305;SDS011;137;48.578;9.180;2022-12-29T04:38:15;3.30;;;1.80;;
305;SDS011;137;48.578;9.180;2022-12-29T04:40:42;2.07;;;1.10;;
305;SDS011;137;48.578;9.180;2022-12-29T04:43:11;5.63;;;1.33;;
305;SDS011;137;48.578;9.180;2022-12-29T04:45:38;1.33;;;1.23;;
305;SDS011;137;48.578;9.180;2022-12-29T04:48:05;1.87;;;1.23;;
305;SDS011;137;48.578;9.180;2022-12-29T04:50:32;2.33;;;0.90;;
305;SDS011;137;48.578;9.180;2022-12-29T04:52:59;1.50;;;1.20;;
305;SDS011;137;48.578;9.180;2022-12-29T04:55:26;1.90;;;1.67;;
305;SDS011;137;48.578;9.180;2022-12-29T04:57:53;1.30;;;0.93;;
305;SDS011;137;48.578;9.180;2022-12-29T05:00:21;3.00;;;1.00;;
305;SDS011;137;48.578;9.180;2022-12-29T05:02:48;1.90;;;1.63;;
305;SDS011;137;48.578;9.180;2022-12-29T05:05:15;2.90;;;1.10;;
305;SDS011;137;48.578;9.180;2022-12-29T05:07:42;2.07;;;0.90;;
305;SDS011;137;48.578;9.180;2022-12-29T05:10:09;1.43;;;0.97;;
305;SDS011;137;48.578;9.180;2022-12-29T05:12:37;1.57;;;1.23;;
305;SDS011;137;48.578;9.180;2022-12-29T05:15:05;1.77;;;0.90;;
305;SDS011;137;48.578;9.180;2022-12-29T05:17:35;2.43;;;1.10;;
305;SDS011;137;48.578;9.180;2022-12-29T05:20:02;3.50;;;1.40;;
305;SDS011;137;48.578;9.180;2022-12-29T05:22:29;2.10;;;1.30;;
305;SDS011;137;48.578;9.180;2022-12-29T05:24:56;3.00;;;1.60;;
305;SDS011;137;48.578;9.180;2022-12-29T05:27:23;2.87;;;2.33;;
305;SDS011;137;48.578;9.180;2022-12-29T05:29:50;3.63;;;2.43;;
305;SDS011;137;48.578;9.180;2022-12-29T05:32:17;4.77;;;3.40;;
305;SDS011;137;48.578;9.180;2022-12-29T05:34:45;9.33;;;4.80;;
305;SDS011;137;48.578;9.180;2022-12-29T05:37:12;4.23;;;2.97;;
305;SDS011;137;48.578;9.180;2022-12-29T05:39:38;3.00;;;1.87;;
305;SDS011;137;48.578;9.180;2022-12-29T05:42:05;5.30;;;1.40;;
305;SDS011;137;48.578;9.180;2022-12-29T05:44:32;2.43;;;1.50;;
305;SDS011;137;48.578;9.180;2022-12-29T05:46:59;4.00;;;2.13;;
305;SDS011;137;48.578;9.180;2022-12-29T05:49:26;4.43;;;1.60;;
305;SDS011;137;48.578;9.180;2022-12-29T05:51:54;7.50;;;3.50;;
305;SDS011;137;48.578;9.180;2022-12-29T05:54:20;2.33;;;1.77;;
305;SDS011;137;48.578;9.180;2022-12-29T05:56:47;2.03;;;1.40;;
305;SDS011;137;48.578;9.180;2022-12-29T05:59:14;2.83;;;1.60;;
305;SDS011;137;48.578;9.180;2022-12-29T06:01:41;3.40;;;1.60;;
305;SDS011;137;48.578;9.180;2022-12-29T06:04:08;2.20;;;1.53;;
305;SDS011;137;48.578;9.180;2022-12-29T06:06:35;2.53;;;2.20;;
305;SDS011;137;48.578;9.180;2022-12-29T06:09:03;2.93;;;1.87;;
305;SDS011;137;48.578;9.180;2022-12-29T06:11:30;3.07;;;1.47;;
305;SDS011;137;48.578;9.180;2022-12-29T06:13:57;2.50;;;1.60;;
305;SDS011;137;48.578;9.180;2022-12-29T06:16:24;4.27;;;2.83;;
305;SDS011;137;48.578;9.180;2022-12-29T06:18:51;2.33;;;1.57;;
305;SDS011;137;48.578;9.180;2022-12-29T06:21:17;3.70;;;1.40;;
305;SDS011;137;48.578;9.180;2022-12-29T06:23:44;1.70;;;1.30;;
305;SDS011;137;48.578;9.180;2022-12-29T06:26:12;1.87;;;1.20;;
305;SDS011;137;48.578;9.180;2022-12-29T06:28:39;2.53;;;1.53;;
305;SDS011;137;48.578;9.180;2022-12-29T06:31:08;1.97;;;1.33;;
305;SDS011;137;48.578;9.180;2022-12-29T06:33:35;4.07;;;1.70;;
305;SDS011;137;48.578;9.180;2022-12-29T06:36:02;3.17;;;2.00;;
305;SDS011;137;48.578;9.180;2022-12-29T06:38:29;2.07;;;1.87;;
305;SDS011;137;48.578;9.180;2022-12-29T06:40:55;3.63;;;1.37;;
305;SDS011;137;48.578;9.180;2022-12-29T06:43:24;1.50;;;1.10;;
305;SDS011;137;48.578;9.180;2022-12-29T06:45:50;2.07;;;1.27;;
305;SDS011;137;48.578;9.180;2022-12-29T06:48:17;1.93;;;1.80;;
305;SDS011;137;48.578;9.180;2022-12-29T06:50:44;1.30;;;1.20;;
305;SDS011;137;48.578;9.180;2022-12-29T06:53:10;1.80;;;1.23;;
305;SDS011;137;48.578;9.180;2022-12-29T06:55:37;3.90;;;1.40;;
305;SDS011;137;48.578;9.180;2022-12-29T06:58:04;2.03;;;1.27;;
305;SDS011;137;48.578;9.180;2022-12-29T07:00:33;2.20;;;1.20;;
305;SDS011;137;48.578;9.180;2022-12-29T07:03:00;2.00;;;1.10;;
305;SDS011;137;48.578;9.180;2022-12-29T07:05:27;2.30;;;1.33;;
305;SDS011;137;48.578;9.180;2022-12-29T07:07:56;4.00;;;1.47;;
305;SDS011;137;48.578;9.180;2022-12-29T07:10:23;2.93;;;1.30;;
305;SDS011;137;48.578;9.180;2022-12-29T07:12:52;2.80;;;1.50;;
305;SDS011;137;48.578;9.180;2022-12-29T07:15:18;3.40;;;1.30;;
305;SDS011;137;48.578;9.180;2022-12-29T07:17:48;3.30;;;1.50;;
305;SDS011;137;48.578;9.180;2022-12-29T07:20:15;3.93;;;1.10;;
305;SDS011;137;48.578;9.180;2022-12-29T07:22:43;2.87;;;1.40;;
305;SDS011;137;48.578;9.180;2022-12-29T07:25:10;2.30;;;1.60;;
305;SDS011;137;48.578;9.180;2022-12-29T07:27:36;1.97;;;1.00;;
305;SDS011;137;48.578;9.180;2022-12-29T07:30:04;3.90;;;1.40;;
305;SDS011;137;48.578;9.180;2022-12-29T07:32:32;2.80;;;1.20;;
305;SDS011;137;48.578;9.180;2022-12-29T07:35:03;3.90;;;1.20;;
305;SDS011;137;48.578;9.180;2022-12-29T07:37:35;2.30;;;1.30;;
305;SDS011;137;48.578;9.180;2022-12-29T07:40:03;1.53;;;1.10;;
305;SDS011;137;48.578;9.180;2022-12-29T07:42:30;2.07;;;1.10;;
305;SDS011;137;48.578;9.180;2022-12-29T07:44:57;4.97;;;1.20;;
305;SDS011;137;48.578;9.180;2022-12-29T07:47:24;1.20;;;1.00;;
305;SDS011;137;48.578;9.180;2022-12-29T07:49:52;1.13;;;1.00;;
305;SDS011;137;48.578;9.180;2022-12-29T07:52:22;3.30;;;1.07;;
305;SDS011;137;48.578;9.180;2022-12-29T07:54:49;1.40;;;1.10;;
305;SDS011;137;48.578;9.180;2022-12-29T07:57:16;1.60;;;1.20;;
305;SDS011;137;48.578;9.180;2022-12-29T07:59:45;1.67;;;1.20;;
305;SDS011;137;48.578;9.180;2022-12-29T08:02:12;2.23;;;1.30;;
305;SDS011;137;48.578;9.180;2022-12-29T08:04:39;1.30;;;1.03;;
305;SDS011;137;48.578;9.180;2022-12-29T08:07:06;5.40;;;1.30;;
305;SDS011;137;48.578;9.180;2022-12-29T08:09:39;1.27;;;0.90;;
305;SDS011;137;48.578;9.180;2022-12-29T08:12:21;1.73;;;0.90;;
305;SDS011;137;48.578;9.180;2022-12-29T08:14:49;2.53;;;1.20;;
305;SDS011;137;48.578;9.180;2022-12-29T08:17:30;1.90;;;0.97;;
305;SDS011;137;48.578;9.180;2022-12-29T08:19:58;3.00;;;1.00;;
305;SDS011;137;48.578;9.180;2022-12-29T08:22:26;2.00;;;0.97;;
305;SDS011;137;48.578;9.180;2022-12-29T08:24:55;1.70;;;1.00;;
305;SDS011;137;48.578;9.180;2022-12-29T08:27:21;3.13;;;1.33;;
305;SDS011;137;48.578;9.180;2022-12-29T08:29:48;2.10;;;1.23;;
305;SDS011;137;48.578;9.180;2022-12-29T08:32:15;2.23;;;1.00;;
305;SDS011;137;48.578;9.180;2022-12-29T08:34:42;4.73;;;1.70;;
305;SDS011;137;48.578;9.180;2022-12-29T08:37:09;1.83;;;1.10;;
305;SDS011;137;48.578;9.180;2022-12-29T08:39:36;1.43;;;1.20;;
305;SDS011;137;48.578;9.180;2022-12-29T08:42:07;1.47;;;1.00;;
305;SDS011;137;48.578;9.180;2022-12-29T08:44:34;2.20;;;1.03;;
305;SDS011;137;48.578;9.180;2022-12-29T08:47:00;1.20;;;1.00;;
305;SDS011;137;48.578;9.180;2022-12-29T08:49:27;2.27;;;1.20;;
305;SDS011;137;48.578;9.180;2022-12-29T08:51:54;2.10;;;1.20;;
305;SDS011;137;48.578;9.180;2022-12-29T08:54:21;1.70;;;1.13;;
305;SDS011;137;48.578;9.180;2022-12-29T08:56:48;2.60;;;1.43;;
305;SDS011;137;48.578;9.180;2022-12-29T08:59:16;2.77;;;1.70;;
305;SDS011;137;48.578;9.180;2022-12-29T09:01:42;1.70;;;1.20;;
305;SDS011;137;48.578;9.180;2022-12-29T09:04:09;3.20;;;1.50;;
305;SDS011;137;48.578;9.180;2022-12-29T09:06:36;2.13;;;1.40;;
305;SDS011;137;48.578;9.180;2022-12-29T09:09:03;1.40;;;1.20;;
305;SDS011;137;48.578;9.180;2022-12-29T09:11:30;1.40;;;1.17;;
305;SDS011;137;48.578;9.180;2022-12-29T09:13:56;2.20;;;1.30;;
305;SDS011;137;48.578;9.180;2022-12-29T09:16:24;1.83;;;1.30;;
305;SDS011;137;48.578;9.180;2022-12-29T09:18:52;3.50;;;1.30;;
305;SDS011;137;48.578;9.180;2022-12-29T09:21:19;1.93;;;0.97;;
305;SDS011;137;48.578;9.180;2022-12-29T09:23:46;3.08;;;1.35;;
305;SDS011;137;48.578;9.180;2022-12-29T09:26:14;1.88;;;1.30;;
305;SDS011;137;48.578;9.180;2022-12-29T09:28:41;1.40;;;1.27;;
305;SDS011;137;48.578;9.180;2022-12-29T09:31:09;3.20;;;1.07;;
305;SDS011;137;48.578;9.180;2022-12-29T09:33:37;1.67;;;1.20;;
305;SDS011;137;48.578;9.180;2022-12-29T09:36:05;2.13;;;1.33;;
305;SDS011;137;48.578;9.180;2022-12-29T09:38:32;2.37;;;1.30;;
305;SDS011;137;48.578;9.180;2022-12-29T09:40:59;1.40;;;1.03;;
305;SDS011;137;48.578;9.180;2022-12-29T09:43:38;2.90;;;1.50;;
305;SDS011;137;48.578;9.180;2022-12-29T09:46:18;1.60;;;1.23;;
305;SDS011;137;48.578;9.180;2022-12-29T09:48:53;1.23;;;1.07;;
305;SDS011;137;48.578;9.180;2022-12-29T09:51:30;2.33;;;1.20;;
305;SDS011;137;48.578;9.180;2022-12-29T09:53:58;1.50;;;1.30;;
305;SDS011;137;48.578;9.180;2022-12-29T09:56:29;1.80;;;1.20;;
305;SDS011;137;48.578;9.180;2022-12-29T09:58:57;2.00;;;1.30;;
305;SDS011;137;48.578;9.180;2022-12-29T10:01:28;2.40;;;1.20;;
305;SDS011;137;48.578;9.180;2022-12-29T10:04:00;3.83;;;1.27;;
305;SDS011;137;48.578;9.180;2022-12-29T10:06:32;1.37;;;1.00;;
305;SDS011;137;48.578;9.180;2022-12-29T10:09:08;2.10;;;1.23;;
305;SDS011;137;48.578;9.180;2022-12-29T10:11:46;2.00;;;1.33;;
305;SDS011;137;48.578;9.180;2022-12-29T10:14:30;3.10;;;2.17;;
305;SDS011;137;48.578;9.180;2022-12-29T10:17:10;2.30;;;1.10;;
305;SDS011;137;48.578;9.180;2022-12-29T10:19:49;3.03;;;1.30;;
305;SDS011;137;48.578;9.180;2022-12-29T10:22:37;2.80;;;1.30;;
305;SDS011;137;48.578;9.180;2022-12-29T10:25:12;1.97;;;1.43;;
305;SDS011;137;48.578;9.180;2022-12-29T10:27:45;2.60;;;1.10;;
305;SDS011;137;48.578;9.180;2022-12-29T10:30:14;2.10;;;1.30;;
305;SDS011;137;48.578;9.180;2022-12-29T10:32:43;4.50;;;1.20;;
305;SDS011;137;48.578;9.180;2022-12-29T10:35:16;1.40;;;1.13;;
305;SDS011;137;48.578;9.180;2022-12-29T10:37:48;2.03;;;1.30;;
305;SDS011;137;48.578;9.180;2022-12-29T10:40:19;1.30;;;1.00;;
305;SDS011;137;48.578;9.180;2022-12-29T10:42:52;2.30;;;1.37;;
305;SDS011;137;48.578;9.180;2022-12-29T10:45:21;1.77;;;1.23;;
305;SDS011;137;48.578;9.180;2022-12-29T10:47:51;1.40;;;1.07;;
305;SDS011;137;48.578;9.180;2022-12-29T10:50:23;1.63;;;1.20;;
305;SDS011;137;48.578;9.180;2022-12-29T10:52:50;1.30;;;0.97;;
305;SDS011;137;48.578;9.180;2022-12-29T10:55:19;1.70;;;1.53;;
305;SDS011;137;48.578;9.180;2022-12-29T10:57:52;2.63;;;1.30;;
305;SDS011;137;48.578;9.180;2022-12-29T11:00:21;1.50;;;1.30;;
305;SDS011;137;48.578;9.180;2022-12-29T11:05:40;3.53;;;1.07;;
305;SDS011;137;48.578;9.180;2022-12-29T11:08:14;2.90;;;1.13;;
305;SDS011;137;48.578;9.180;2022-12-29T11:10:44;1.97;;;1.10;;
305;SDS011;137;48.578;9.180;2022-12-29T11:13:13;3.50;;;1.20;;
305;SDS011;137;48.578;9.180;2022-12-29T11:15:42;2.07;;;1.20;;
305;SDS011;137;48.578;9.180;2022-12-29T11:18:17;2.57;;;1.30;;
305;SDS011;137;48.578;9.180;2022-12-29T11:20:48;1.83;;;1.10;;
305;SDS011;137;48.578;9.180;2022-12-29T11:26:14;3.00;;;1.50;;
305;SDS011;137;48.578;9.180;2022-12-29T11:28:44;3.50;;;1.20;;
305;SDS011;137;48.578;9.180;2022-12-29T11:31:15;1.70;;;1.27;;
305;SDS011;137;48.578;9.180;2022-12-29T11:33:42;2.57;;;1.33;;
305;SDS011;137;48.578;9.180;2022-12-29T11:36:12;2.27;;;1.23;;
305;SDS011;137;48.578;9.180;2022-12-29T11:38:42;1.33;;;1.20;;
305;SDS011;137;48.578;9.180;2022-12-29T11:41:18;1.60;;;1.20;;
305;SDS011;137;48.578;9.180;2022-12-29T11:43:48;2.40;;;1.47;;
305;SDS011;137;48.578;9.180;2022-12-29T11:46:16;2.20;;;1.37;;
305;SDS011;137;48.578;9.180;2022-12-29T11:48:46;1.43;;;1.10;;
305;SDS011;137;48.578;9.180;2022-12-29T11:51:21;1.27;;;0.90;;
305;SDS011;137;48.578;9.180;2022-12-29T11:53:50;1.60;;;1.40;;
305;SDS011;137;48.578;9.180;2022-12-29T11:56:20;1.43;;;0.97;;
305;SDS011;137;48.578;9.180;2022-12-29T11:58:50;2.40;;;1.00;;
305;SDS011;137;48.578;9.180;2022-12-29T12:01:19;2.73;;;1.20;;
305;SDS011;137;48.578;9.180;2022-12-29T12:03:52;2.27;;;1.37;;
305;SDS011;137;48.578;9.180;2022-12-29T12:06:27;1.80;;;1.20;;
305;SDS011;137;48.578;9.180;2022-12-29T12:08:57;3.43;;;1.10;;
305;SDS011;137;48.578;9.180;2022-12-29T12:11:29;1.77;;;1.20;;
305;SDS011;137;48.578;9.180;2022-12-29T12:14:02;1.60;;;1.20;;
305;SDS011;137;48.578;9.180;2022-12-29T12:16:33;2.43;;;1.30;;
305;SDS011;137;48.578;9.180;2022-12-29T12:19:08;1.50;;;1.37;;
305;SDS011;137;48.578;9.180;2022-12-29T12:21:41;2.30;;;1.50;;
305;SDS011;137;48.578;9.180;2022-12-29T12:24:16;2.77;;;1.60;;
305;SDS011;137;48.578;9.180;2022-12-29T12:26:55;2.73;;;1.43;;
305;SDS011;137;48.578;9.180;2022-12-29T12:29:28;1.57;;;1.03;;
305;SDS011;137;48.578;9.180;2022-12-29T12:32:04;1.50;;;1.00;;
305;SDS011;137;48.578;9.180;2022-12-29T12:34:40;1.50;;;1.10;;
305;SDS011;137;48.578;9.180;2022-12-29T12:40:11;2.47;;;1.90;;
305;SDS011;137;48.578;9.180;2022-12-29T12:42:57;2.13;;;1.30;;
305;SDS011;137;48.578;9.180;2022-12-29T12:45:38;3.73;;;1.20;;
305;SDS011;137;48.578;9.180;2022-12-29T12:48:20;1.80;;;1.37;;
305;SDS011;137;48.578;9.180;2022-12-29T12:51:03;5.93;;;1.70;;
305;SDS011;137;48.578;9.180;2022-12-29T12:53:43;1.87;;;1.20;;
305;SDS011;137;48.578;9.180;2022-12-29T12:56:32;1.90;;;1.37;;
305;SDS011;137;48.578;9.180;2022-12-29T12:59:16;2.33;;;1.47;;
305;SDS011;137;48.578;9.180;2022-12-29T13:01:54;2.10;;;1.33;;
305;SDS011;137;48.578;9.180;2022-12-29T13:04:32;1.63;;;1.30;;
305;SDS011;137;48.578;9.180;2022-12-29T13:07:12;1.70;;;1.60;;
305;SDS011;137;48.578;9.180;2022-12-29T13:09:53;7.57;;;2.20;;
305;SDS011;137;48.578;9.180;2022-12-29T13:12:33;2.73;;;1.23;;
305;SDS011;137;48.578;9.180;2022-12-29T13:15:12;2.90;;;1.40;;
305;SDS011;137;48.578;9.180;2022-12-29T13:17:49;2.70;;;1.40;;
305;SDS011;137;48.578;9.180;2022-12-29T13:20:25;2.50;;;1.50;;
305;SDS011;137;48.578;9.180;2022-12-29T13:23:00;4.60;;;2.07;;
305;SDS011;137;48.578;9.180;2022-12-29T13:25:36;2.63;;;1.40;;
305;SDS011;137;48.578;9.180;2022-12-29T13:28:10;5.60;;;2.00;;
305;SDS011;137;48.578;9.180;2022-12-29T13:30:47;1.97;;;1.27;;
305;SDS011;137;48.578;9.180;2022-12-29T13:33:24;2.50;;;1.23;;
305;SDS011;137;48.578;9.180;2022-12-29T13:35:59;5.83;;;1.60;;
305;SDS011;137;48.578;9.180;2022-12-29T13:38:29;2.78;;;1.48;;
305;SDS011;137;48.578;9.180;2022-12-29T13:41:02;1.83;;;1.50;;
305;SDS011;137;48.578;9.180;2022-12-29T13:43:34;1.63;;;1.20;;
305;SDS011;137;48.578;9.180;2022-12-29T13:46:06;2.53;;;1.80;;
305;SDS011;137;48.578;9.180;2022-12-29T13:48:37;2.17;;;1.40;;
305;SDS011;137;48.578;9.180;2022-12-29T13:51:09;2.17;;;1.97;;
305;SDS011;137;48.578;9.180;2022-12-29T13:53:40;1.97;;;1.30;;
305;SDS011;137;48.578;9.180;2022-12-29T13:56:29;1.63;;;1.10;;
305;SDS011;137;48.578;9.180;2022-12-29T13:59:03;2.10;;;1.17;;
305;SDS011;137;48.578;9.180;2022-12-29T14:01:39;1.53;;;1.10;;
305;SDS011;137;48.578;9.180;2022-12-29T14:04:11;1.93;;;1.23;;
305;SDS011;137;48.578;9.180;2022-12-29T14:06:39;2.70;;;1.30;;
305;SDS011;137;48.578;9.180;2022-12-29T14:12:11;2.10;;;1.63;;
305;SDS011;137;48.578;9.180;2022-12-29T14:15:01;2.23;;;1.00;;
305;SDS011;137;48.578;9.180;2022-12-29T14:17:40;2.60;;;1.30;;
305;SDS011;137;48.578;9.180;2022-12-29T14:20:15;3.33;;;1.40;;
305;SDS011;137;48.578;9.180;2022-12-29T14:22:55;1.40;;;1.20;;
305;SDS011;137;48.578;9.180;2022-12-29T14:28:22;1.80;;;1.30;;
305;SDS011;137;48.578;9.180;2022-12-29T14:30:51;4.20;;;1.40;;
305;SDS011;137;48.578;9.180;2022-12-29T14:33:19;2.13;;;1.37;;
305;SDS011;137;48.578;9.180;2022-12-29T14:35:48;1.60;;;1.10;;
305;SDS011;137;48.578;9.180;2022-12-29T14:38:21;1.50;;;1.40;;
305;SDS011;137;48.578;9.180;2022-12-29T14:40:53;1.77;;;1.50;;
305;SDS011;137;48.578;9.180;2022-12-29T14:43:55;1.60;;;1.20;;
305;SDS011;137;48.578;9.180;2022-12-29T14:46:24;2.27;;;1.50;;
305;SDS011;137;48.578;9.180;2022-12-29T14:49:08;3.60;;;1.50;;
305;SDS011;137;48.578;9.180;2022-12-29T14:51:43;2.80;;;1.70;;
305;SDS011;137;48.578;9.180;2022-12-29T14:57:11;1.80;;;1.20;;
305;SDS011;137;48.578;9.180;2022-12-29T14:59:48;3.23;;;2.07;;
305;SDS011;137;48.578;9.180;2022-12-29T15:02:21;1.50;;;1.30;;
305;SDS011;137;48.578;9.180;2022-12-29T15:04:51;8.47;;;1.73;;
305;SDS011;137;48.578;9.180;2022-12-29T15:07:20;2.07;;;1.30;;
305;SDS011;137;48.578;9.180;2022-12-29T15:09:53;4.10;;;1.40;;
305;SDS011;137;48.578;9.180;2022-12-29T15:12:28;1.67;;;1.33;;
305;SDS011;137;48.578;9.180;2022-12-29T15:15:10;2.50;;;1.03;;
305;SDS011;137;48.578;9.180;2022-12-29T15:17:44;1.70;;;1.30;;
305;SDS011;137;48.578;9.180;2022-12-29T15:20:16;1.97;;;1.23;;
305;SDS011;137;48.578;9.180;2022-12-29T15:22:48;2.00;;;1.37;;
305;SDS011;137;48.578;9.180;2022-12-29T15:25:19;1.83;;;1.50;;
305;SDS011;137;48.578;9.180;2022-12-29T15:27:48;1.70;;;1.30;;
305;SDS011;137;48.578;9.180;2022-12-29T15:30:18;2.97;;;1.27;;
305;SDS011;137;48.578;9.180;2022-12-29T15:32:46;2.03;;;1.70;;
305;SDS011;137;48.578;9.180;2022-12-29T15:35:24;2.53;;;1.60;;
305;SDS011;137;48.578;9.180;2022-12-29T15:37:56;2.20;;;1.50;;
305;SDS011;137;48.578;9.180;2022-12-29T15:40:24;1.50;;;1.30;;
305;SDS011;137;48.578;9.180;2022-12-29T15:42:55;1.63;;;1.20;;
305;SDS011;137;48.578;9.180;2022-12-29T15:45:34;3.40;;;1.50;;
305;SDS011;137;48.578;9.180;2022-12-29T15:48:01;2.50;;;1.50;;
305;SDS011;137;48.578;9.180;2022-12-29T15:50:30;2.67;;;2.00;;
305;SDS011;137;48.578;9.180;2022-12-29T15:52:58;5.60;;;1.80;;
305;SDS011;137;48.578;9.180;2022-12-29T15:55:28;2.10;;;1.70;;
305;SDS011;137;48.578;9.180;2022-12-29T15:57:58;2.20;;;1.57;;
305;SDS011;137;48.578;9.180;2022-12-29T16:00:31;2.73;;;1.40;;
305;SDS011;137;48.578;9.180;2022-12-29T16:03:03;2.70;;;1.40;;
305;SDS011;137;48.578;9.180;2022-12-29T16:05:32;2.37;;;1.40;;
305;SDS011;137;48.578;9.180;2022-12-29T16:08:00;1.97;;;1.43;;
305;SDS011;137;48.578;9.180;2022-12-29T16:10:29;2.00;;;1.60;;
305;SDS011;137;48.578;9.180;2022-12-29T16:13:06;1.50;;;1.20;;
305;SDS011;137;48.578;9.180;2022-12-29T16:19:01;3.47;;;1.50;;
305;SDS011;137;48.578;9.180;2022-12-29T16:27:54;4.13;;;2.80;;
305;SDS011;137;48.578;9.180;2022-12-29T17:08:46;2.10;;;1.50;;
305;SDS011;137;48.578;9.180;2022-12-29T17:11:35;2.80;;;1.30;;
305;SDS011;137;48.578;9.180;2022-12-29T17:14:45;2.00;;;1.37;;
305;SDS011;137;48.578;9.180;2022-12-29T17:17:36;1.70;;;1.40;;
305;SDS011;137;48.578;9.180;2022-12-29T19:11:01;1.50;;;1.40;;
305;SDS011;137;48.578;9.180;2022-12-29T19:13:27;1.90;;;1.70;;